LFHP 221130Z AUTO VRB03KT CAVOK 12/M02 Q1031

ElémentsDécodage
LFHP Station météo située sur l'aérodrome de LE-PUY loudes
221130Z émis le 22 du mois à 11h30 UTC
AUTO Bulletin édité par un automate
VRB03KT vent de direction variable, 03 noeuds
CAVOK Ceiling And Visibility OK
- Visibilité de 10 Km ou plus
- Pas de nuage au-dessous de 1500m ou au-dessous de l'altitude minimale du secteur la plus élevée (si>1500m) et absence de CB
- pas de temps présent significatif
12/M02 température 12°C, point de rosée -02°C
 soit une humidité relative de 38%
Q1031 la pression au niveau de la mer (QNH) est de 1031 hPa